createdAt,value
2022-09-14T00:00:45.606Z,17.43
2022-09-14T00:05:52.747Z,17.46
2022-09-14T00:11:01.022Z,17.46
2022-09-14T00:16:11.345Z,17.44
2022-09-14T00:21:20.785Z,17.43
2022-09-14T00:26:29.260Z,17.36
2022-09-14T00:31:40.268Z,17.35
2022-09-14T00:36:56.743Z,17.33
2022-09-14T00:42:16.987Z,17.30
2022-09-14T00:47:49.318Z,17.30
2022-09-14T00:53:15.118Z,17.29
2022-09-14T00:58:25.887Z,17.27
2022-09-14T01:03:33.662Z,17.25
2022-09-14T01:09:10.169Z,17.27
2022-09-14T01:14:41.935Z,17.21
2022-09-14T01:20:16.302Z,17.22
2022-09-14T01:25:59.059Z,17.23
2022-09-14T01:31:14.824Z,17.23
2022-09-14T01:36:24.361Z,17.23
2022-09-14T01:41:31.961Z,17.25
2022-09-14T01:46:43.457Z,17.27
2022-09-14T01:52:03.658Z,17.25
2022-09-14T01:57:35.876Z,17.26
2022-09-14T02:02:52.293Z,17.23
2022-09-14T02:07:57.985Z,17.23
2022-09-14T02:13:26.056Z,17.27
2022-09-14T02:18:36.742Z,17.25
2022-09-14T02:23:45.837Z,17.24
2022-09-14T02:28:55.845Z,17.22
2022-09-14T02:34:15.723Z,17.21
2022-09-14T02:39:29.781Z,17.15
2022-09-14T02:44:46.791Z,17.06
2022-09-14T02:50:31.294Z,17.04
2022-09-14T02:55:45.201Z,17.03
2022-09-14T03:00:53.198Z,17.01
2022-09-14T03:11:25.551Z,17.00
2022-09-14T03:16:32.750Z,17.01
2022-09-14T03:21:50.795Z,17.01
2022-09-14T03:26:55.330Z,16.98
2022-09-14T03:32:03.397Z,16.97
2022-09-14T03:37:12.720Z,16.96
2022-09-14T03:42:27.285Z,16.96
2022-09-14T03:47:33.346Z,16.95
2022-09-14T03:52:47.852Z,16.95
2022-09-14T03:58:01.600Z,16.88
2022-09-14T04:03:28.470Z,16.86
2022-09-14T04:08:38.975Z,16.76
2022-09-14T04:14:00.151Z,16.65
2022-09-14T04:19:14.612Z,16.59
2022-09-14T04:24:36.218Z,16.46
2022-09-14T04:29:46.959Z,16.32
2022-09-14T04:34:52.037Z,16.18
2022-09-14T04:39:56.515Z,16.09
2022-09-14T04:45:11.906Z,16.05
2022-09-14T04:50:33.632Z,15.97
2022-09-14T04:55:49.143Z,15.88
2022-09-14T05:00:56.135Z,15.83
2022-09-14T05:06:07.223Z,15.76
2022-09-14T05:11:20.069Z,15.70
2022-09-14T05:17:01.493Z,15.69
2022-09-14T05:22:11.365Z,15.67
2022-09-14T05:27:16.225Z,15.71
2022-09-14T05:32:20.870Z,15.75
2022-09-14T05:37:28.243Z,15.77
2022-09-14T05:42:33.117Z,15.78
2022-09-14T05:47:39.264Z,15.78
2022-09-14T05:52:48.941Z,15.78
2022-09-14T05:57:54.476Z,15.78
2022-09-14T06:02:59.368Z,15.79
2022-09-14T06:08:07.297Z,15.75
2022-09-14T06:13:15.212Z,15.76
2022-09-14T06:18:19.644Z,15.73
2022-09-14T06:23:26.712Z,15.72
2022-09-14T06:28:32.062Z,15.70
2022-09-14T06:33:36.859Z,15.69
2022-09-14T06:38:44.656Z,15.67
2022-09-14T06:43:49.477Z,15.65
2022-09-14T06:48:55.825Z,15.70
2022-09-14T06:54:03.554Z,15.70
2022-09-14T06:59:09.485Z,15.74
2022-09-14T07:04:14.622Z,15.79
2022-09-14T07:09:22.553Z,15.86
2022-09-14T07:14:31.593Z,15.79
2022-09-14T07:19:36.791Z,15.81
2022-09-14T07:24:43.832Z,15.80
2022-09-14T07:29:48.270Z,15.76
2022-09-14T07:34:53.243Z,15.75
2022-09-14T07:40:01.287Z,15.75
2022-09-14T07:45:06.117Z,15.73
2022-09-14T07:50:11.859Z,15.74
2022-09-14T07:55:21.149Z,15.71
2022-09-14T08:00:25.699Z,15.66
2022-09-14T08:05:31.294Z,15.68
2022-09-14T08:10:40.054Z,15.71
2022-09-14T08:15:44.735Z,15.73
2022-09-14T08:20:49.621Z,15.78
2022-09-14T08:25:57.853Z,15.80
2022-09-14T08:31:07.403Z,15.80
2022-09-14T08:36:14.767Z,15.73
2022-09-14T08:41:31.912Z,15.73
2022-09-14T08:46:38.548Z,15.75
2022-09-14T08:51:43.196Z,15.78
2022-09-14T08:56:56.370Z,15.85
2022-09-14T09:02:09.300Z,15.89
2022-09-14T09:07:21.456Z,15.96
2022-09-14T09:12:38.759Z,15.96
2022-09-14T09:17:47.698Z,15.91
2022-09-14T09:22:57.883Z,15.89
2022-09-14T09:28:14.630Z,15.89
2022-09-14T09:33:23.177Z,15.94
2022-09-14T09:38:40.377Z,15.94
2022-09-14T09:44:07.138Z,15.98
2022-09-14T09:49:20.996Z,15.97
2022-09-14T09:54:29.843Z,15.96
2022-09-14T09:59:38.634Z,15.94
2022-09-14T10:04:59.375Z,15.92
2022-09-14T10:10:06.188Z,15.92
2022-09-14T10:15:19.056Z,15.92
2022-09-14T10:20:25.533Z,15.91
2022-09-14T10:25:30.053Z,15.91
2022-09-14T10:30:43.630Z,15.96
2022-09-14T10:35:55.851Z,15.96
2022-09-14T10:41:11.362Z,16.02
2022-09-14T10:46:24.339Z,16.10
2022-09-14T10:51:40.718Z,16.22
2022-09-14T10:57:03.634Z,16.35
2022-09-14T11:02:59.329Z,16.46
2022-09-14T11:08:17.854Z,16.51
2022-09-14T11:13:42.356Z,16.60
2022-09-14T11:18:59.113Z,16.67
2022-09-14T11:24:14.390Z,16.70
2022-09-14T11:29:26.158Z,16.75
2022-09-14T11:34:38.361Z,16.80
2022-09-14T11:39:46.053Z,16.83
2022-09-14T11:44:56.803Z,16.84
2022-09-14T11:50:09.517Z,16.85
2022-09-14T11:55:20.597Z,16.96
2022-09-14T12:00:48.904Z,17.04
2022-09-14T12:05:56.040Z,17.13
2022-09-14T12:11:29.111Z,17.23
2022-09-14T12:16:34.740Z,17.36
2022-09-14T12:21:41.977Z,17.47
2022-09-14T12:26:46.799Z,17.53
2022-09-14T12:32:07.620Z,17.53
2022-09-14T12:37:34.740Z,17.59
2022-09-14T12:42:39.272Z,17.63
2022-09-14T12:47:53.660Z,17.55
2022-09-14T18:22:57.260Z,14.41
2022-09-14T18:28:02.043Z,14.47
2022-09-14T18:33:06.854Z,14.61
2022-09-14T18:38:14.712Z,14.44
2022-09-14T18:43:19.947Z,14.45
2022-09-14T18:48:26.405Z,14.38
2022-09-14T22:26:34.290Z,13.58
2022-09-14T22:31:40.454Z,13.56
2022-09-14T22:36:45.845Z,13.59
2022-09-14T22:41:52.841Z,13.58
2022-09-14T22:46:57.316Z,13.52
2022-09-14T22:52:01.768Z,13.49
2022-09-14T22:57:09.214Z,13.47
2022-09-14T23:02:14.798Z,13.44
2022-09-14T23:07:20.181Z,13.47
2022-09-14T23:12:27.260Z,13.41
2022-09-14T23:17:31.758Z,13.46
2022-09-14T23:22:36.284Z,13.45
2022-09-14T23:27:43.293Z,13.50
2022-09-14T23:32:47.836Z,13.49
2022-09-14T23:37:54.310Z,13.47
2022-09-14T23:43:04.881Z,13.50
2022-09-14T23:48:09.404Z,13.51
2022-09-14T23:53:13.863Z,13.53
2022-09-14T23:58:21.266Z,13.53
